Time;durP1;ratioP1;P1;durP2;ratioP2;P2;SDS_P1;SDS_P2;PMS_P1;PMS_P2;Temp;Humidity;BMP_temperature;BMP_pressure;BME280_temperature;BME280_humidity;BME280_pressure;Samples;Min_cycle;Max_cycle;Signal;HPM_P1;HPM_P2
2022/07/28 00:00:35;;;;;;;4.30;1.80;;;;;;;11.17;77.30;100736.98;84390;1335;25297;-70
2022/07/28 00:02:49;;;;;;;4.00;2.30;;;;;;;11.13;77.46;100737.10;84398;1335;22600;-69
2022/07/28 00:04:58;;;;;;;6.60;1.70;;;;;;;11.11;77.40;100737.52;84408;1335;22615;-70
2022/07/28 00:07:07;;;;;;;7.50;1.90;;;;;;;11.09;77.43;100736.90;84401;1336;22634;-71
2022/07/28 00:09:15;;;;;;;3.70;1.60;;;;;;;11.07;77.52;100738.52;84387;1338;24285;-70
2022/07/28 00:11:24;;;;;;;6.90;2.00;;;;;;;11.04;77.62;100739.67;84408;1335;22593;-71
2022/07/28 00:13:33;;;;;;;5.20;1.60;;;;;;;11.02;77.67;100735.73;84409;1333;22613;-69
2022/07/28 00:15:41;;;;;;;4.10;2.10;;;;;;;10.99;77.84;100738.63;84391;1335;24283;-69
2022/07/28 00:17:53;;;;;;;3.90;1.70;;;;;;;10.94;77.67;100741.06;84379;1335;25523;-69
2022/07/28 00:20:02;;;;;;;2.20;2.00;;;;;;;10.91;77.96;100744.50;84397;1336;22626;-68
2022/07/28 00:22:14;;;;;;;2.90;1.60;;;;;;;10.89;78.05;100746.15;84394;1335;22911;-68
2022/07/28 00:24:25;;;;;;;3.00;1.90;;;;;;;10.85;78.16;100744.86;84379;1335;23054;-70
2022/07/28 00:26:34;;;;;;;2.60;1.70;;;;;;;10.82;78.20;100745.64;84397;1338;22618;-71
2022/07/28 00:28:43;;;;;;;4.90;1.80;;;;;;;10.80;78.32;100750.96;84397;1335;25269;-70
2022/07/28 00:30:54;;;;;;;5.00;1.70;;;;;;;10.76;78.14;100749.86;84395;1335;22655;-71
2022/07/28 00:33:03;;;;;;;5.80;2.10;;;;;;;10.71;78.30;100746.36;84408;1339;22610;-70
2022/07/28 00:35:12;;;;;;;2.80;1.50;;;;;;;10.66;78.35;100746.19;84413;1335;23063;-70
2022/07/28 00:37:21;;;;;;;2.40;1.90;;;;;;;10.62;78.47;100748.77;84412;1334;25373;-70
2022/07/28 00:39:29;;;;;;;2.10;1.70;;;;;;;10.57;78.55;100751.34;84404;1334;22636;-69
2022/07/28 00:41:39;;;;;;;2.00;1.60;;;;;;;10.52;78.44;100751.85;84406;1335;23951;-69
2022/07/28 00:43:50;;;;;;;8.50;1.80;;;;;;;10.49;78.69;100751.78;84429;1335;22587;-70
2022/07/28 00:45:59;;;;;;;5.30;2.10;;;;;;;10.46;78.82;100748.75;84391;1335;22716;-70
2022/07/28 00:48:08;;;;;;;4.40;1.90;;;;;;;10.42;78.99;100750.09;84370;1338;23944;-69
2022/07/28 00:50:18;;;;;;;3.70;1.80;;;;;;;10.39;78.98;100754.72;84414;1335;22600;-70
2022/07/28 00:52:27;;;;;;;4.40;1.90;;;;;;;10.35;79.18;100753.79;84424;1331;22648;-71
2022/07/28 00:54:35;;;;;;;7.60;2.50;;;;;;;10.32;79.33;100757.55;84410;1333;22593;-70
2022/07/28 00:56:44;;;;;;;2.80;1.80;;;;;;;10.29;79.43;100755.17;84424;1336;23912;-68
2022/07/28 00:58:54;;;;;;;2.10;1.90;;;;;;;10.28;79.51;100756.08;84417;1334;22713;-69
2022/07/28 01:01:04;;;;;;;5.60;2.30;;;;;;;10.27;79.55;100753.52;84418;1334;22635;-70
2022/07/28 01:03:14;;;;;;;7.60;2.40;;;;;;;10.27;79.72;100754.73;84374;1336;22896;-67
2022/07/28 01:05:25;;;;;;;2.40;2.20;;;;;;;10.27;79.66;100752.46;84436;1335;22586;-69
2022/07/28 01:07:37;;;;;;;4.30;3.00;;;;;;;10.23;79.72;100753.63;84413;1335;22583;-71
2022/07/28 01:09:53;;;;;;;4.70;2.30;;;;;;;10.22;79.92;100753.83;84391;1335;22606;-69
2022/07/28 01:12:09;;;;;;;6.00;2.40;;;;;;;10.21;80.02;100757.84;84433;1335;22957;-70
2022/07/28 01:14:27;;;;;;;7.10;1.90;;;;;;;10.20;80.17;100760.17;84441;1335;25447;-70
2022/07/28 01:16:36;;;;;;;4.70;1.70;;;;;;;10.18;80.30;100760.05;84411;1335;22638;-70
2022/07/28 01:18:48;;;;;;;4.80;2.10;;;;;;;10.16;80.32;100758.02;84405;1334;22642;-70
2022/07/28 01:21:01;;;;;;;2.60;1.70;;;;;;;10.13;80.29;100758.09;84449;1335;22617;-70
2022/07/28 01:23:25;;;;;;;3.40;2.10;;;;;;;10.10;80.31;100759.39;84420;1333;23091;-70
2022/07/28 01:25:44;;;;;;;8.40;2.60;;;;;;;10.05;80.43;100757.61;84419;1335;25324;-70
2022/07/28 01:28:06;;;;;;;3.20;2.50;;;;;;;10.03;80.65;100756.99;84412;1338;22610;-69
2022/07/28 01:30:38;;;;;;;3.40;2.50;;;;;;;10.01;80.64;100755.67;84429;1335;25450;-70
2022/07/28 01:32:50;;;;;;;4.60;2.30;;;;;;;9.97;80.81;100753.69;84427;1336;22616;-71
2022/07/28 01:35:03;;;;;;;4.30;1.70;;;;;;;9.96;80.91;100752.86;84438;1335;22625;-70
2022/07/28 01:37:17;;;;;;;5.40;2.60;;;;;;;9.95;80.90;100757.77;84412;1336;22622;-69
2022/07/28 01:39:27;;;;;;;7.50;2.40;;;;;;;9.94;81.03;100758.30;84412;1335;25371;-69
2022/07/28 01:41:36;;;;;;;5.80;3.00;;;;;;;9.92;80.81;100755.92;84422;1335;22600;-69
2022/07/28 01:43:53;;;;;;;5.00;2.20;;;;;;;9.88;80.89;100760.92;84424;1333;22726;-69
2022/07/28 01:46:01;;;;;;;5.20;2.30;;;;;;;9.85;81.06;100759.95;84412;1335;22687;-70
2022/07/28 01:48:12;;;;;;;7.60;2.30;;;;;;;9.84;81.23;100757.38;84286;1337;22711;-70
2022/07/28 01:50:22;;;;;;;8.20;2.50;;;;;;;9.82;81.26;100759.88;84396;1335;22617;-69
2022/07/28 01:52:35;;;;;;;2.60;2.10;;;;;;;9.79;81.37;100759.60;84388;1336;23983;-68
2022/07/28 01:54:44;;;;;;;3.10;1.80;;;;;;;9.79;81.40;100756.48;84407;1335;22599;-69
2022/07/28 01:56:53;;;;;;;6.00;2.20;;;;;;;9.74;81.58;100756.77;84381;1335;22611;-69
2022/07/28 01:59:05;;;;;;;7.20;2.50;;;;;;;9.71;81.68;100757.74;84403;1336;25325;-69
2022/07/28 02:01:15;;;;;;;2.80;2.20;;;;;;;9.67;81.71;100755.77;84370;1335;22835;-69
2022/07/28 02:03:24;;;;;;;6.50;2.20;;;;;;;9.65;81.89;100760.52;84397;1336;22937;-70
2022/07/28 02:05:32;;;;;;;5.80;2.20;;;;;;;9.63;81.84;100763.91;84391;1335;22677;-70
2022/07/28 02:07:41;;;;;;;4.60;2.20;;;;;;;9.59;81.91;100762.62;84402;1331;22655;-71
2022/07/28 02:09:50;;;;;;;4.00;2.10;;;;;;;9.56;82.05;100765.84;84417;1335;23733;-71
2022/07/28 02:11:59;;;;;;;4.00;2.90;;;;;;;9.54;82.09;100763.42;84379;1333;22610;-71
2022/07/28 02:14:08;;;;;;;3.50;2.40;;;;;;;9.50;81.98;100764.27;84391;1335;24253;-71
2022/07/28 02:16:17;;;;;;;3.80;2.10;;;;;;;9.48;82.22;100768.84;84387;1336;22560;-69
2022/07/28 02:18:26;;;;;;;6.50;2.70;;;;;;;9.47;82.23;100766.27;84389;1336;22615;-69
2022/07/28 02:20:38;;;;;;;2.90;2.60;;;;;;;9.46;82.35;100764.71;84359;1335;22895;-69
2022/07/28 02:22:47;;;;;;;4.50;2.30;;;;;;;9.47;82.53;100770.27;84376;1335;24806;-69
2022/07/28 02:24:56;;;;;;;6.60;2.90;;;;;;;9.43;82.57;100766.17;84372;1335;23028;-69
2022/07/28 02:27:08;;;;;;;7.80;3.50;;;;;;;9.41;82.71;100765.20;84366;1336;24046;-69
2022/07/28 02:29:18;;;;;;;3.70;2.20;;;;;;;9.40;82.83;100765.92;84371;1335;22619;-69
2022/07/28 02:31:32;;;;;;;2.80;2.40;;;;;;;9.38;82.72;100767.54;84358;1335;22616;-69
2022/07/28 02:33:42;;;;;;;6.30;2.60;;;;;;;9.37;82.83;100770.70;84363;1335;24334;-71
2022/07/28 02:35:53;;;;;;;6.40;2.90;;;;;;;9.33;82.81;100772.20;84370;1335;22632;-70
2022/07/28 02:38:05;;;;;;;6.90;2.70;;;;;;;9.30;82.91;100772.11;84359;1335;23944;-71
2022/07/28 02:40:16;;;;;;;6.30;2.70;;;;;;;9.26;82.97;100772.89;84391;1335;22593;-71
2022/07/28 02:42:28;;;;;;;6.00;2.70;;;;;;;9.24;83.17;100772.59;84377;1336;25321;-71
2022/07/28 02:44:41;;;;;;;7.40;2.50;;;;;;;9.21;83.24;100773.02;84373;1336;24372;-71
2022/07/28 02:46:53;;;;;;;3.80;2.60;;;;;;;9.19;83.36;100773.61;84365;1335;24214;-70
2022/07/28 02:49:05;;;;;;;3.40;2.70;;;;;;;9.16;83.43;100771.77;84370;1335;22621;-70
2022/07/28 02:51:14;;;;;;;4.70;3.00;;;;;;;9.14;83.44;100775.30;84384;1335;25379;-70
2022/07/28 02:53:23;;;;;;;4.00;2.40;;;;;;;9.13;83.43;100779.70;84383;1335;22590;-69
2022/07/28 02:55:32;;;;;;;7.60;2.40;;;;;;;9.11;83.67;100783.56;84354;1335;22600;-69
2022/07/28 02:57:44;;;;;;;5.40;2.70;;;;;;;9.11;83.79;100788.27;84370;1335;22921;-68
2022/07/28 02:59:56;;;;;;;2.50;2.30;;;;;;;9.08;83.89;100792.85;84363;1335;22610;-69
2022/07/28 03:02:04;;;;;;;5.70;2.30;;;;;;;9.08;84.03;100796.86;84351;1335;22619;-69
2022/07/28 03:04:13;;;;;;;3.80;2.80;;;;;;;9.07;83.85;100799.84;84339;1336;22606;-70
2022/07/28 03:06:22;;;;;;;7.10;2.90;;;;;;;9.04;83.87;100794.86;84355;1335;22621;-71
2022/07/28 03:08:31;;;;;;;4.70;2.60;;;;;;;9.06;84.16;100793.24;84388;1335;22595;-70
2022/07/28 03:10:40;;;;;;;5.50;2.80;;;;;;;9.07;84.22;100791.14;84377;1338;25443;-70
2022/07/28 03:12:49;;;;;;;3.40;3.00;;;;;;;9.07;84.38;100793.23;84371;1335;22591;-69
2022/07/28 03:14:58;;;;;;;3.60;3.10;;;;;;;9.05;84.32;100795.00;84361;1335;22597;-70
2022/07/28 03:17:06;;;;;;;3.40;2.50;;;;;;;9.04;84.40;100795.03;84368;1335;25502;-70
2022/07/28 03:19:15;;;;;;;4.20;2.30;;;;;;;9.04;84.51;100798.00;84366;1336;22598;-72
2022/07/28 03:21:24;;;;;;;4.30;2.90;;;;;;;9.05;84.61;100801.45;84365;1335;22681;-71
2022/07/28 03:23:37;;;;;;;2.60;2.40;;;;;;;9.06;84.70;100801.09;84353;1335;25303;-71
2022/07/28 03:25:48;;;;;;;12.40;3.30;;;;;;;9.05;84.73;100803.54;84387;1335;22624;-70
2022/07/28 03:27:56;;;;;;;7.60;3.20;;;;;;;9.07;85.04;100804.90;84359;1335;22591;-70
2022/07/28 03:30:09;;;;;;;8.90;3.40;;;;;;;9.09;85.15;100804.85;84409;1336;22616;-71
2022/07/28 03:32:19;;;;;;;3.60;2.30;;;;;;;9.11;85.21;100805.13;84369;1335;23022;-69
2022/07/28 03:34:28;;;;;;;5.10;3.30;;;;;;;9.14;85.20;100814.99;84407;1335;22607;-70
2022/07/28 03:36:43;;;;;;;4.30;2.60;;;;;;;9.18;85.42;100812.11;84387;1335;22752;-70
2022/07/28 03:38:54;;;;;;;3.00;2.50;;;;;;;9.21;85.46;100813.08;84376;1335;23976;-70
2022/07/28 03:41:03;;;;;;;6.10;3.40;;;;;;;9.25;85.50;100813.83;84367;1335;22849;-70
2022/07/28 03:43:12;;;;;;;4.00;2.90;;;;;;;9.31;85.56;100818.74;84383;1336;25310;-70
2022/07/28 03:45:21;;;;;;;3.10;2.70;;;;;;;9.39;85.71;100820.29;84140;1335;25655;-70
2022/07/28 03:47:30;;;;;;;3.00;2.40;;;;;;;9.53;85.75;100821.65;84358;1336;23902;-70
2022/07/28 03:49:38;;;;;;;3.10;2.80;;;;;;;9.96;85.79;100819.41;84408;1335;22591;-70
2022/07/28 03:51:48;;;;;;;5.90;3.30;;;;;;;10.85;86.24;100818.66;84408;1335;22641;-70
2022/07/28 03:53:56;;;;;;;3.30;2.70;;;;;;;11.85;86.66;100820.19;84377;1336;25467;-70
2022/07/28 03:56:06;;;;;;;5.80;2.70;;;;;;;12.80;86.05;100820.08;84384;1333;22658;-69
2022/07/28 03:58:15;;;;;;;3.20;2.20;;;;;;;13.71;83.53;100823.88;84405;1335;22605;-69
2022/07/28 04:00:25;;;;;;;3.40;2.50;;;;;;;14.50;80.43;100819.57;84396;1335;25321;-70
2022/07/28 04:02:34;;;;;;;5.90;2.80;;;;;;;15.16;78.07;100820.05;84392;1335;22627;-70
2022/07/28 04:04:43;;;;;;;3.90;2.50;;;;;;;15.83;76.67;100819.09;84406;1336;22627;-71
2022/07/28 04:06:52;;;;;;;3.90;2.90;;;;;;;16.59;74.55;100818.17;84391;1335;22668;-69
2022/07/28 04:09:01;;;;;;;5.90;2.50;;;;;;;17.17;71.63;100815.75;84380;1335;25274;-71
2022/07/28 04:11:09;;;;;;;2.80;2.40;;;;;;;17.78;69.70;100816.55;84361;1328;22851;-71
2022/07/28 04:13:19;;;;;;;6.20;2.40;;;;;;;18.36;67.12;100815.80;84397;1336;22683;-70
2022/07/28 04:15:28;;;;;;;3.10;2.50;;;;;;;18.79;65.51;100817.28;84373;1335;24246;-69
2022/07/28 04:17:37;;;;;;;4.20;2.30;;;;;;;19.16;63.57;100818.91;84379;1335;25359;-70
2022/07/28 04:19:48;;;;;;;5.30;2.10;;;;;;;19.21;61.99;100816.98;84386;1335;22621;-69
2022/07/28 04:21:57;;;;;;;5.00;2.40;;;;;;;18.86;61.42;100820.70;84377;1335;22608;-69
2022/07/28 04:24:08;;;;;;;5.20;2.40;;;;;;;18.47;60.81;100824.98;84411;1336;22620;-68
2022/07/28 04:26:17;;;;;;;4.80;2.70;;;;;;;17.94;60.74;100831.65;84400;1334;25454;-69
2022/07/28 04:28:27;;;;;;;5.00;2.50;;;;;;;17.48;61.30;100832.13;84323;1333;22632;-69
2022/07/28 04:30:36;;;;;;;6.10;2.40;;;;;;;17.10;61.51;100828.86;84394;1335;22621;-70
2022/07/28 04:32:44;;;;;;;5.00;3.40;;;;;;;16.72;62.03;100830.12;84406;1331;22622;-71
2022/07/28 04:34:53;;;;;;;4.80;3.20;;;;;;;16.44;62.93;100829.73;84396;1335;22869;-69
2022/07/28 04:37:03;;;;;;;5.30;3.50;;;;;;;16.22;63.61;100834.65;84389;1331;26242;-69
2022/07/28 04:39:11;;;;;;;5.50;3.90;;;;;;;16.02;64.13;100837.81;84237;1337;22623;-70
2022/07/28 04:41:20;;;;;;;4.10;3.10;;;;;;;15.91;65.03;100838.21;84388;1336;22627;-68
2022/07/28 04:43:29;;;;;;;5.00;4.10;;;;;;;15.83;65.20;100833.57;84412;1335;22594;-69
2022/07/28 04:45:37;;;;;;;4.00;3.60;;;;;;;15.76;65.11;100831.96;84387;1335;23928;-69
2022/07/28 04:47:46;;;;;;;6.10;4.50;;;;;;;15.70;65.54;100832.67;84377;1335;22608;-68
2022/07/28 04:49:56;;;;;;;10.50;4.10;;;;;;;15.63;65.72;100837.04;84383;1336;22697;-72
2022/07/28 04:52:07;;;;;;;4.70;4.20;;;;;;;15.67;66.05;100831.73;84285;1337;22608;-70
2022/07/28 04:54:15;;;;;;;4.90;3.50;;;;;;;15.94;66.32;100833.84;84361;1335;22613;-70
2022/07/28 04:56:26;;;;;;;4.60;3.20;;;;;;;16.64;66.42;100832.17;84402;1335;22665;-70
2022/07/28 04:58:35;;;;;;;7.80;3.50;;;;;;;17.56;65.47;100833.55;84364;1336;22599;-70
2022/07/28 05:00:43;;;;;;;4.50;3.50;;;;;;;18.67;65.55;100828.30;84379;1334;23618;-69
2022/07/28 05:02:52;;;;;;;5.50;3.60;;;;;;;19.88;63.01;100825.00;84379;1335;24262;-70
2022/07/28 05:05:01;;;;;;;5.20;3.90;;;;;;;20.96;59.84;100820.95;84364;1335;22626;-69
2022/07/28 05:07:10;;;;;;;8.00;4.20;;;;;;;21.86;56.88;100824.59;84371;1336;23944;-69
2022/07/28 05:09:19;;;;;;;4.80;3.70;;;;;;;22.72;54.71;100821.33;84396;1335;22674;-69
2022/07/28 05:11:28;;;;;;;4.60;3.80;;;;;;;23.48;53.00;100823.52;84389;1335;24306;-70
2022/07/28 05:13:37;;;;;;;7.00;3.40;;;;;;;24.11;51.02;100823.09;84424;1336;23992;-69
2022/07/28 05:15:46;;;;;;;5.30;3.70;;;;;;;24.99;47.36;100821.48;84385;1335;22589;-70
2022/07/28 05:17:55;;;;;;;5.70;3.50;;;;;;;25.79;45.91;100825.27;84372;1335;23924;-71
2022/07/28 05:20:05;;;;;;;5.90;3.40;;;;;;;26.32;44.61;100826.47;84409;1336;22590;-71
2022/07/28 05:22:14;;;;;;;5.70;3.20;;;;;;;26.88;41.76;100821.29;84390;1333;24373;-71
2022/07/28 05:24:23;;;;;;;11.20;4.10;;;;;;;27.49;40.10;100825.74;84375;1334;22702;-71
2022/07/28 05:26:32;;;;;;;5.60;3.50;;;;;;;28.02;39.52;100820.70;84388;1337;22874;-69
2022/07/28 05:28:41;;;;;;;4.60;2.70;;;;;;;28.34;38.48;100820.48;84412;1334;22605;-70
2022/07/28 05:30:50;;;;;;;3.00;2.40;;;;;;;28.66;36.73;100827.48;84383;1335;23082;-71
2022/07/28 05:33:00;;;;;;;6.60;3.20;;;;;;;29.03;35.66;100827.77;84375;1335;22787;-70
2022/07/28 05:35:10;;;;;;;3.10;2.80;;;;;;;29.49;34.84;100832.64;84381;1335;23941;-69
2022/07/28 05:37:19;;;;;;;4.80;2.30;;;;;;;29.79;34.13;100835.29;84410;1335;22753;-69
2022/07/28 05:39:30;;;;;;;4.10;2.90;;;;;;;30.07;33.63;100838.58;84394;1339;25290;-70
2022/07/28 05:41:39;;;;;;;3.30;2.50;;;;;;;30.23;34.02;100836.64;84398;1331;22622;-70
2022/07/28 05:43:48;;;;;;;4.60;2.70;;;;;;;30.37;33.81;100836.44;84407;1336;22708;-70
2022/07/28 05:45:56;;;;;;;4.70;2.50;;;;;;;30.60;32.72;100833.95;84384;1335;22585;-70
2022/07/28 05:48:06;;;;;;;5.70;2.50;;;;;;;30.86;32.52;100832.27;84398;1335;22619;-70
2022/07/28 05:50:13;;;;;;;;;;;;;;;31.12;32.19;100836.57;84393;1335;25961;-70
2022/07/28 05:52:22;;;;;;;3.60;2.00;;;;;;;31.32;32.06;100840.33;84364;1335;22634;-70
2022/07/28 05:54:31;;;;;;;4.60;2.70;;;;;;;31.48;31.10;100838.68;84398;1335;22677;-70
2022/07/28 05:56:40;;;;;;;5.70;2.10;;;;;;;31.58;31.06;100846.00;84375;1335;25307;-70
2022/07/28 05:58:48;;;;;;;3.00;2.10;;;;;;;31.72;31.06;100846.02;84387;1336;25445;-70
2022/07/28 06:00:57;;;;;;;;;;;;;;;31.92;30.39;100849.58;84396;1336;22717;-71
2022/07/28 06:03:06;;;;;;;3.40;1.70;;;;;;;32.18;30.01;100847.70;84377;1336;22625;-71
2022/07/28 06:05:15;;;;;;;4.90;2.00;;;;;;;32.31;29.65;100845.36;84367;1331;22710;-70
2022/07/28 06:07:24;;;;;;;2.90;1.90;;;;;;;32.50;29.64;100843.09;84368;1335;22861;-70
2022/07/28 06:09:33;;;;;;;5.00;2.00;;;;;;;32.81;29.33;100842.03;84365;1335;22843;-69
2022/07/28 06:11:42;;;;;;;4.40;1.70;;;;;;;33.13;28.22;100843.75;84381;1335;22625;-70
2022/07/28 06:13:52;;;;;;;5.00;1.70;;;;;;;33.18;27.37;100846.05;84385;1336;22597;-70
2022/07/28 06:16:01;;;;;;;3.70;1.90;;;;;;;33.25;27.86;100853.30;84257;1338;22749;-69
2022/07/28 06:18:10;;;;;;;4.40;1.70;;;;;;;33.24;27.27;100849.79;84393;1335;22629;-69
2022/07/28 06:20:19;;;;;;;2.80;1.80;;;;;;;33.43;27.08;100852.63;84363;1335;25567;-69
2022/07/28 06:22:26;;;;;;;;;;;;;;;33.83;26.91;100852.73;84387;1335;25436;-69
2022/07/28 06:24:35;;;;;;;5.40;1.60;;;;;;;33.92;26.34;100858.81;84388;1336;22965;-71
2022/07/28 06:26:44;;;;;;;3.50;1.80;;;;;;;34.03;25.70;100858.73;84375;1329;22609;-71
2022/07/28 06:28:53;;;;;;;3.50;1.50;;;;;;;34.19;25.15;100857.73;84393;1336;22587;-71
2022/07/28 06:31:05;;;;;;;5.90;1.50;;;;;;;34.35;25.48;100853.77;84352;1331;22861;-71
2022/07/28 06:33:16;;;;;;;3.30;1.80;;;;;;;34.52;25.55;100854.61;84364;1335;22905;-72
2022/07/28 06:35:24;;;;;;;3.70;1.50;;;;;;;34.80;24.87;100855.41;84409;1335;24316;-71
2022/07/28 06:37:33;;;;;;;7.70;2.10;;;;;;;34.81;25.21;100854.27;84370;1336;25549;-72
2022/07/28 06:39:40;;;;;;;;;;;;;;;34.89;25.01;100856.59;84376;1333;22580;-69
2022/07/28 06:41:49;;;;;;;2.80;1.40;;;;;;;35.08;24.55;100853.61;84361;1335;23990;-69
2022/07/28 06:43:58;;;;;;;2.30;1.60;;;;;;;35.30;23.99;100855.01;84355;1336;23994;-70
2022/07/28 06:46:07;;;;;;;4.90;1.70;;;;;;;35.49;22.98;100851.14;84263;1340;22613;-70
2022/07/28 06:48:15;;;;;;;2.20;1.40;;;;;;;35.70;23.32;100854.89;84385;1335;25444;-70
2022/07/28 06:50:24;;;;;;;4.40;1.60;;;;;;;35.64;23.14;100857.41;84371;1335;22776;-70
2022/07/28 06:52:33;;;;;;;3.20;1.60;;;;;;;35.67;22.65;100861.27;84392;1335;22629;-70
2022/07/28 06:54:40;;;;;;;;;;;;;;;35.97;22.26;100858.92;84362;1335;22583;-70
2022/07/28 06:56:49;;;;;;;1.90;1.40;;;;;;;36.17;22.13;100861.60;84348;1336;22637;-69
2022/07/28 06:58:58;;;;;;;3.10;1.60;;;;;;;36.31;22.33;100859.58;84356;1336;22887;-70
2022/07/28 07:01:06;;;;;;;;;;;;;;;36.07;21.79;100863.09;84366;1334;25321;-70
2022/07/28 07:03:15;;;;;;;2.20;1.50;;;;;;;35.90;22.42;100861.60;84378;1336;22700;-69
2022/07/28 07:05:27;;;;;;;3.70;1.80;;;;;;;35.78;22.05;100867.45;84382;1337;22585;-71
2022/07/28 07:07:35;;;;;;;2.40;1.30;;;;;;;35.86;21.90;100869.45;84293;1333;22636;-72
2022/07/28 07:09:44;;;;;;;2.30;1.20;;;;;;;36.03;22.12;100868.61;84317;1333;22764;-70
2022/07/28 07:11:53;;;;;;;3.80;1.50;;;;;;;36.27;21.91;100873.00;84285;1338;22599;-70
2022/07/28 07:14:01;;;;;;;2.60;1.40;;;;;;;36.23;21.89;100868.21;84323;1335;22982;-71
2022/07/28 07:16:10;;;;;;;4.50;1.70;;;;;;;36.40;21.24;100866.56;84286;1336;22609;-70
2022/07/28 07:18:20;;;;;;;4.60;1.60;;;;;;;36.51;20.86;100865.31;84307;1337;22563;-71
2022/07/28 07:20:29;;;;;;;5.80;1.50;;;;;;;36.54;20.63;100864.96;84303;1338;25451;-71
2022/07/28 07:22:43;;;;;;;2.40;1.60;;;;;;;36.64;20.88;100861.89;84260;1337;22645;-72
2022/07/28 07:24:51;;;;;;;2.30;1.40;;;;;;;36.51;20.46;100862.63;84319;1336;22633;-70
2022/07/28 07:26:59;;;;;;;;;;;;;;;36.57;21.28;100863.41;84302;1333;22958;-71
2022/07/28 07:29:07;;;;;;;2.90;1.30;;;;;;;36.65;20.85;100865.88;84325;1338;22752;-71
2022/07/28 07:31:16;;;;;;;5.70;1.60;;;;;;;36.88;20.52;100867.48;84298;1336;22587;-72
2022/07/28 07:33:23;;;;;;;;;;;;;;;36.94;20.77;100870.27;84304;1339;24238;-72
2022/07/28 07:35:33;;;;;;;2.80;1.70;;;;;;;36.71;20.75;100867.94;84287;1340;22593;-70
2022/07/28 07:37:44;;;;;;;5.10;2.10;;;;;;;36.84;20.69;100866.44;84264;1338;22637;-72
2022/07/28 07:39:56;;;;;;;5.20;1.40;;;;;;;36.91;21.05;100865.33;84311;1340;22913;-72
2022/07/28 07:42:04;;;;;;;5.00;1.40;;;;;;;36.98;21.19;100868.59;84301;1336;23058;-70
2022/07/28 07:44:13;;;;;;;3.80;1.30;;;;;;;36.98;20.69;100867.38;84282;1337;25437;-71
2022/07/28 07:46:22;;;;;;;6.40;2.00;;;;;;;36.88;20.84;100865.83;84284;1337;22607;-71
2022/07/28 07:48:31;;;;;;;2.90;1.20;;;;;;;37.18;21.16;100865.66;84292;1337;24101;-72
2022/07/28 07:50:40;;;;;;;2.10;0.90;;;;;;;37.50;19.78;100865.38;84308;1337;25343;-73
2022/07/28 07:52:49;;;;;;;2.90;1.20;;;;;;;37.48;19.66;100860.17;84279;1332;22773;-73
2022/07/28 07:54:58;;;;;;;2.70;1.20;;;;;;;37.23;19.67;100862.10;84304;1337;22614;-70
2022/07/28 07:57:07;;;;;;;2.20;1.20;;;;;;;36.95;19.84;100861.12;84286;1338;22625;-71
2022/07/28 07:59:16;;;;;;;7.00;1.20;;;;;;;37.02;19.84;100862.49;84306;1336;25304;-71
2022/07/28 08:01:25;;;;;;;5.90;1.50;;;;;;;36.97;20.14;100864.99;84322;1330;22589;-71
2022/07/28 08:03:37;;;;;;;8.90;1.90;;;;;;;36.79;20.25;100863.91;84310;1338;22579;-71
2022/07/28 08:05:46;;;;;;;3.00;1.20;;;;;;;36.80;20.48;100868.90;84387;1333;25462;-75
2022/07/28 08:07:54;;;;;;;2.90;1.30;;;;;;;36.47;20.56;100867.75;84384;1335;22664;-71
2022/07/28 08:10:02;;;;;;;3.40;1.30;;;;;;;36.13;20.51;100877.25;84392;1335;22671;-71
2022/07/28 08:12:14;;;;;;;3.10;1.40;;;;;;;35.78;21.02;100878.59;84385;1336;22601;-69
2022/07/28 08:14:25;;;;;;;4.40;1.30;;;;;;;35.49;21.13;100878.39;84297;1338;22620;-72
2022/07/28 08:16:32;;;;;;;;;;;;;;;35.46;21.82;100877.22;84407;1331;22737;-71
2022/07/28 08:18:41;;;;;;;4.00;1.40;;;;;;;35.46;21.59;100879.77;84411;1339;22790;-70
2022/07/28 08:20:48;;;;;;;;;;;;;;;35.82;21.77;100878.92;84385;1335;24289;-71
2022/07/28 08:22:58;;;;;;;2.90;1.20;;;;;;;36.21;21.38;100879.73;84306;1337;25310;-70
2022/07/28 08:25:09;;;;;;;3.90;1.30;;;;;;;36.66;21.09;100882.36;84418;1335;22600;-72
2022/07/28 08:27:18;;;;;;;1.90;1.00;;;;;;;37.09;20.53;100876.71;84366;1335;23995;-72
2022/07/28 08:29:27;;;;;;;2.60;1.40;;;;;;;37.46;20.26;100875.95;84403;1336;24769;-72
2022/07/28 08:31:36;;;;;;;2.10;1.40;;;;;;;37.85;20.01;100883.17;84374;1337;22747;-72
2022/07/28 08:33:45;;;;;;;4.10;1.20;;;;;;;38.12;19.82;100879.20;84415;1333;22609;-69
2022/07/28 08:35:54;;;;;;;2.80;1.30;;;;;;;38.25;19.21;100878.83;84378;1335;23976;-69
2022/07/28 08:38:11;;;;;;;2.50;1.10;;;;;;;38.44;19.19;100875.10;84387;1333;22620;-70
2022/07/28 08:40:27;;;;;;;3.40;1.50;;;;;;;38.44;19.53;100875.98;84054;1340;22592;-71
2022/07/28 08:42:48;;;;;;;6.90;1.90;;;;;;;38.47;19.66;100876.65;84164;1341;22641;-71
2022/07/28 08:45:02;;;;;;;3.10;1.20;;;;;;;38.73;19.22;100872.46;84390;1335;22626;-71
2022/07/28 08:47:13;;;;;;;3.50;1.30;;;;;;;39.00;19.31;100874.14;84369;1335;22601;-70
2022/07/28 08:49:22;;;;;;;2.10;1.10;;;;;;;39.14;18.82;100876.84;84369;1335;22638;-70
2022/07/28 08:51:32;;;;;;;2.00;1.00;;;;;;;38.97;18.59;100876.46;84375;1335;22693;-72
2022/07/28 08:53:42;;;;;;;5.70;1.70;;;;;;;38.84;18.95;100879.68;84372;1331;22614;-72
2022/07/28 08:55:51;;;;;;;5.80;1.30;;;;;;;38.56;18.66;100882.27;84370;1335;24021;-72
2022/07/28 08:58:00;;;;;;;1.30;1.00;;;;;;;38.32;18.52;100881.23;84370;1336;25304;-71
2022/07/28 09:00:13;;;;;;;3.30;1.40;;;;;;;37.63;18.49;100878.95;84369;1335;23879;-71
2022/07/28 09:02:21;;;;;;;3.40;1.70;;;;;;;37.17;19.87;100885.98;84375;1335;22904;-71
2022/07/28 09:04:29;;;;;;;;;;;;;;;36.96;20.38;100882.92;84391;1333;22678;-70
2022/07/28 09:06:40;;;;;;;3.20;1.30;;;;;;;36.64;20.16;100886.11;84373;1335;22651;-70
2022/07/28 09:08:52;;;;;;;3.40;1.50;;;;;;;36.58;20.72;100882.02;84388;1335;22615;-70
2022/07/28 09:11:01;;;;;;;4.40;1.60;;;;;;;36.79;21.00;100880.94;84387;1335;22833;-70
2022/07/28 09:13:10;;;;;;;4.10;1.50;;;;;;;37.04;20.29;100884.13;84395;1335;24246;-71
2022/07/28 09:15:22;;;;;;;1.60;1.10;;;;;;;37.18;20.40;100885.42;84421;1335;22613;-72
2022/07/28 09:17:31;;;;;;;5.50;0.90;;;;;;;37.14;20.19;100887.80;84422;1335;22683;-71
2022/07/28 09:19:41;;;;;;;4.70;1.30;;;;;;;37.05;20.02;100882.32;84412;1335;23959;-72
2022/07/28 09:21:51;;;;;;;1.90;1.30;;;;;;;37.20;19.71;100889.16;84377;1335;24959;-71
2022/07/28 09:24:00;;;;;;;2.70;1.40;;;;;;;37.23;20.15;100891.40;84382;1335;22620;-71
2022/07/28 09:26:12;;;;;;;3.10;1.40;;;;;;;37.05;20.24;100887.44;84385;1335;22603;-70
2022/07/28 09:28:22;;;;;;;2.00;0.90;;;;;;;36.60;20.57;100887.94;84401;1339;22896;-70
2022/07/28 09:30:36;;;;;;;1.40;0.90;;;;;;;36.21;20.44;100885.23;84380;1332;22912;-70
2022/07/28 09:32:45;;;;;;;2.40;1.10;;;;;;;35.60;20.21;100890.52;84389;1336;22616;-71
2022/07/28 09:34:55;;;;;;;2.00;1.10;;;;;;;35.06;21.10;100894.31;84386;1335;22935;-71
2022/07/28 09:37:04;;;;;;;4.20;1.00;;;;;;;34.82;21.94;100893.05;84388;1336;22592;-71
2022/07/28 09:39:13;;;;;;;2.90;1.10;;;;;;;34.52;21.96;100890.65;84363;1335;24257;-71
2022/07/28 09:41:22;;;;;;;2.50;1.10;;;;;;;34.28;22.08;100891.09;84377;1335;22615;-70
2022/07/28 09:43:38;;;;;;;3.10;1.30;;;;;;;33.93;22.19;100888.45;84366;1335;22619;-71
2022/07/28 09:45:47;;;;;;;3.20;0.90;;;;;;;33.64;22.37;100890.85;84374;1335;22953;-71
2022/07/28 09:48:09;;;;;;;;;;;;;;;33.32;23.29;100887.00;84389;1335;22646;-72
2022/07/28 09:50:28;;;;;;;3.90;1.40;;;;;;;33.04;23.99;100889.19;84390;1335;22727;-73
2022/07/28 09:52:39;;;;;;;3.70;1.10;;;;;;;32.93;24.23;100893.20;84384;1335;22870;-74
2022/07/28 09:55:00;;;;;;;2.10;1.30;;;;;;;32.87;24.19;100887.56;84388;1336;25310;-72
2022/07/28 09:57:14;;;;;;;21.30;2.20;;;;;;;32.77;24.18;100891.92;84448;1335;22634;-72
2022/07/28 09:59:31;;;;;;;2.10;1.00;;;;;;;32.57;24.13;100889.25;84480;1336;22609;-71
2022/07/28 10:01:59;;;;;;;3.10;1.30;;;;;;;32.37;24.10;100890.67;84387;1335;24235;-72
2022/07/28 10:04:08;;;;;;;2.90;0.90;;;;;;;32.17;24.33;100890.35;84391;1335;22593;-71
2022/07/28 10:06:26;;;;;;;3.20;1.30;;;;;;;31.67;24.37;100892.46;84377;1335;22591;-72
2022/07/28 10:08:46;;;;;;;4.50;0.80;;;;;;;31.34;25.17;100890.71;84406;1335;23912;-72